Chugwater, WY

5:01 PM MDT on August 21, 2014 (GMT -0600)
Torrington Municipal | Change Station
CLOSE
Current Station
Airport
Location: Torrington,
Elevation: 4206 ft
Nearby Weather Stations

Elev 4206 ft 42.06 °N, 104.15 °W | Updated 8 minutes ago

Partly Cloudy
Partly Cloudy
86 °F
Feels Like 86 °F
N
9
Wind Variable Wind from WNW

Today
High -- | Low -- °F
--% Chance of Precip.
Yesterday
High -- | Low -- °F
Precip. -- in
6:13 AM 7:49 PM
Waning Crescent, 12% visible
Pressure 29.83 in
Visibility 10.0 miles
Clouds Few 12000 ft
Dew Point 42 °F
Humidity 21%
Rainfall 0.00 in
Snow Depth Not available.
UV 3 out of 12
Pollen 10.30 out of 12
Air Quality Not available.
Flu Activity Not available.
METAR KTOR 212253Z AUTO 30008KT 10SM FEW120 30/06 A2997 RMK AO2 SLP101 T03000056

More Conditions Fewer Conditions

Pressure 29.83 in
Visibility 10.0 miles
Clouds Few 12000 ft
Dew Point 42 °F
Humidity 21%
Rainfall 0.00 in
Snow Depth Not available.
UV 3 out of 12
Pollen 10.30 out of 12
Air Quality Not available.
Flu Activity Not available.
METAR KTOR 212253Z AUTO 30008KT 10SM FEW120 30/06 A2997 RMK AO2 SLP101 T03000056

More Conditions Fewer Conditions

10-Day Weather Forecast

Almanac

Astronomy

Aug. 21, 2014 Rise Set
Actual Time 6:13 AM MDT 7:49 PM MDT
Civil Twilight 5:44 AM MDT 8:19 PM MDT
Nautical Twilight 5:08 AM MDT 8:54 PM MDT
Astronomical Twilight 4:30 AM MDT 9:32 PM MDT
Moon 2:44 AM MDT 5:21 PM MDT
Length of Visible Light 14h 34m
Length of Day
13h 36m
Tomorrow will be 2m 34s shorter.
Waning Crescent, 12% of the Moon is Illuminated
Today
Waning Crescent
Aug 25
New
Sep 2
First Quarter
Sep 8
Full
Sep 15
Last Quarter

Today's Extremes

State Highs State Lows

Community

WunderPhotos

Upload Photos

1,746,047 photos uploaded!

Nearby

Snow Depth

Station Depth Elevation
Crow Creek 6 in 8330 ft
Casper Mountain 0 in 7850 ft
Old Battle 0 in 9920 ft
Sandstone R.S. 1 in 8150 ft
Grave Springs 0 in 8550 ft

Earthquake Activity

City Distance Mag. Time & Date
No recent earthquake activity has been reported nearby.
Minimum magnitude displayed is 2.5.

Coastal Water Temperatures

Place Temperature
No Stations Reporting

Nearby Weather Stations